Pagrindinis puslapis
METAR-TAF:

METAR-TAF

Oro uostai :

Gibraltaras, Gibraltaras

platuma: 36-09N, ilguma: 005-21W, Aukštis: 5 m

Dabartinis oras

Ataskaita buvo paskelbta 1 valandą ir 22 minutes, ne 22:50 UTC
Vėjas 7 kt iš Vakarų
Temperatūra 15°C
Drėgmė 77%
Slėgis 1024 hPa
Matomumas 10 km arba daugiau

METAR: LXGB 242250Z AUTO 26007KT 9999 // NCD 15/11 Q1024

Laikas: 01:12 (00:12 UTC)

Prognozė

Ataskaita buvo paskelbta 7 valandos ir 46 minutes, ne 16:26 UTC
Prognozė galioja nuo 24 metu 18 UTC su 24 metu 23 UTC
Vėjas 3 kt iš Rytų/Pietryčių
Matomumas 10 km arba daugiau
nėra debesų žemiau 1500 m ir nėra kamuolinių lietaus debesų

TAF: LXGB 241626Z 2418/2423 12003KT CAVOK

Orai ataskaitas ir orų prognozės (METAR, TAF).

turimą stotys yra geltonos ir raudonos taškus žemėlapyje.

Perkelti pele per norėdami pamatyti stoties vardą.

Tada spustelėkite, norėdami matyti oro stebėjimo ir prognozės.

Norėdami pakeisti žemėlapį: spustelėkite ant žalios mygtukų su juodo kryžiaus žemyn,; žalią mygtuką su brūkšneliu, jei norite nutolinti; arba žalių rodyklių gretimoms žemėlapius.


METAR-TAF: